createdAt,value
2023-04-03T04:01:59.999Z,53.34
2023-04-03T04:04:44.960Z,54.67
2023-04-03T04:07:29.796Z,55.44
2023-04-03T04:10:14.590Z,55.31
2023-04-03T04:12:59.595Z,55.02
2023-04-03T04:15:44.407Z,55.11
2023-04-03T04:18:29.263Z,55.11
2023-04-03T04:21:14.191Z,54.73
2023-04-03T04:23:59.152Z,54.53
2023-04-03T04:26:44.094Z,54.65
2023-04-03T04:29:28.996Z,54.71
2023-04-03T04:32:13.935Z,54.60
2023-04-03T04:34:58.805Z,54.12
2023-04-03T04:37:43.711Z,54.28
2023-04-03T04:40:28.452Z,54.53
2023-04-03T04:43:13.168Z,55.63
2023-04-03T04:45:57.981Z,56.60
2023-04-03T04:48:42.991Z,56.76
2023-04-03T04:51:29.552Z,56.87
2023-04-03T04:54:17.862Z,57.77
2023-04-03T04:57:02.848Z,56.61
2023-04-03T04:59:47.686Z,55.70
2023-04-03T05:02:32.678Z,55.49
2023-04-03T05:05:17.591Z,55.27
2023-04-03T05:08:02.364Z,54.83
2023-04-03T05:10:47.203Z,54.89
2023-04-03T05:13:31.939Z,54.77
2023-04-03T05:16:16.815Z,54.40
2023-04-03T05:19:01.710Z,54.54
2023-04-03T05:21:46.435Z,54.67
2023-04-03T05:24:31.291Z,54.68
2023-04-03T05:27:16.330Z,54.57
2023-04-03T05:30:01.220Z,54.55
2023-04-03T05:32:46.131Z,53.93
2023-04-03T05:35:30.912Z,54.08
2023-04-03T05:38:15.679Z,53.64
2023-04-03T05:41:00.679Z,53.33
2023-04-03T05:43:45.460Z,53.04
2023-04-03T05:46:30.135Z,53.13
2023-04-03T05:49:14.936Z,53.33
2023-04-03T05:51:59.858Z,53.40
2023-04-03T05:54:44.770Z,53.45
2023-04-03T05:57:29.684Z,53.43
2023-04-03T06:00:14.619Z,53.39
2023-04-03T06:02:59.413Z,53.83
2023-04-03T06:05:44.233Z,53.64
2023-04-03T06:08:29.115Z,53.45
2023-04-03T06:11:13.976Z,53.93
2023-04-03T06:13:58.723Z,54.07
2023-04-03T06:16:43.619Z,54.06
2023-04-03T06:19:28.426Z,53.32
2023-04-03T06:22:13.217Z,52.88
2023-04-03T06:24:58.258Z,51.44
2023-04-03T06:27:43.102Z,50.95
2023-04-03T06:30:28.032Z,50.92
2023-04-03T06:33:12.906Z,49.22
2023-04-03T06:35:57.823Z,48.96
2023-04-03T06:38:42.547Z,48.48
2023-04-03T06:41:27.388Z,48.45
2023-04-03T06:44:12.228Z,46.96
2023-04-03T06:46:57.042Z,45.40
2023-04-03T06:49:41.989Z,44.79
2023-04-03T06:52:26.958Z,44.38
2023-04-03T06:55:11.910Z,44.93
2023-04-03T06:57:56.827Z,45.46
2023-04-03T07:00:41.813Z,46.59
2023-04-03T07:03:26.624Z,48.65
2023-04-03T07:06:11.561Z,47.57
2023-04-03T07:08:56.477Z,47.62
2023-04-03T07:11:41.532Z,47.83
2023-04-03T07:14:26.556Z,45.48
2023-04-03T07:17:11.291Z,44.43
2023-04-03T07:19:56.274Z,44.21
2023-04-03T07:22:41.091Z,45.52
2023-04-03T07:25:25.975Z,47.29
2023-04-03T07:28:11.000Z,49.10
2023-04-03T07:30:55.835Z,47.18
2023-04-03T07:33:40.672Z,46.37
2023-04-03T07:36:25.484Z,47.39
2023-04-03T07:39:10.366Z,46.69
2023-04-03T07:41:55.226Z,48.32
2023-04-03T07:44:40.306Z,48.86
2023-04-03T07:47:25.053Z,49.19
2023-04-03T07:50:09.833Z,50.99
2023-04-03T07:52:54.638Z,49.24
2023-04-03T07:55:39.721Z,51.23
2023-04-03T07:58:25.017Z,49.33
2023-04-03T08:01:09.768Z,50.08
2023-04-03T08:03:54.935Z,50.64
2023-04-03T08:06:46.552Z,51.76
2023-04-03T08:09:31.972Z,52.44
2023-04-03T08:12:16.940Z,51.27
2023-04-03T08:15:01.696Z,52.23
2023-04-03T08:17:46.692Z,53.09
2023-04-03T08:20:31.412Z,53.10
2023-04-03T08:23:17.607Z,50.45
2023-04-03T08:26:03.336Z,50.94
2023-04-03T08:28:48.184Z,50.45
2023-04-03T08:31:33.183Z,50.76
2023-04-03T08:34:17.970Z,49.52
2023-04-03T08:37:02.935Z,50.06
2023-04-03T08:39:47.902Z,48.81
2023-04-03T08:42:32.789Z,47.92
2023-04-03T08:45:17.667Z,50.41
2023-04-03T08:48:02.585Z,51.60
2023-04-03T08:50:47.527Z,50.00
2023-04-03T08:53:32.166Z,49.75
2023-04-03T08:56:17.100Z,51.59
2023-04-03T08:59:01.876Z,51.06
2023-04-03T09:01:46.885Z,50.44
2023-04-03T09:04:31.673Z,50.83
2023-04-03T09:07:16.573Z,52.76
2023-04-03T09:10:01.475Z,49.80
2023-04-03T09:12:46.439Z,50.81
2023-04-03T09:15:38.474Z,48.91
2023-04-03T09:18:24.265Z,49.38
2023-04-03T09:21:09.082Z,50.92
2023-04-03T09:23:54.052Z,50.11
2023-04-03T09:26:38.834Z,52.40
2023-04-03T09:29:23.686Z,51.85
2023-04-03T09:32:08.260Z,51.11
2023-04-03T09:34:53.208Z,49.72
2023-04-03T09:37:39.109Z,47.05
2023-04-03T09:40:24.399Z,48.62
2023-04-03T09:43:09.239Z,48.05
2023-04-03T09:45:54.119Z,47.59
2023-04-03T09:48:39.194Z,46.43
2023-04-03T09:51:24.062Z,47.26
2023-04-03T09:54:08.875Z,46.39
2023-04-03T09:56:54.801Z,46.50
2023-04-03T09:59:39.570Z,46.66
2023-04-03T10:02:24.490Z,46.92
2023-04-03T10:05:10.155Z,46.92
2023-04-03T10:08:03.633Z,46.11
2023-04-03T10:10:48.804Z,46.71
2023-04-03T10:13:38.784Z,47.30
2023-04-03T10:16:30.195Z,46.43
2023-04-03T10:19:15.138Z,46.68
2023-04-03T10:21:59.940Z,48.23
2023-04-03T10:24:44.788Z,52.08
2023-04-03T10:27:29.733Z,48.27
2023-04-03T10:30:14.736Z,48.24
2023-04-03T10:32:59.675Z,45.55
2023-04-03T10:35:44.607Z,44.76
2023-04-03T10:38:29.529Z,45.69
2023-04-03T10:41:16.387Z,43.62
2023-04-03T10:44:01.759Z,43.46
2023-04-03T10:46:46.614Z,42.47
2023-04-03T10:49:31.638Z,44.57
2023-04-03T10:52:16.458Z,43.64
2023-04-03T10:55:01.292Z,42.19
2023-04-03T10:57:46.172Z,41.72
2023-04-03T11:00:31.209Z,40.54
2023-04-03T11:03:16.047Z,39.62
2023-04-03T11:06:00.692Z,40.81
2023-04-03T11:08:45.563Z,43.54
2023-04-03T11:11:30.431Z,41.87
2023-04-03T11:14:15.260Z,42.25
2023-04-03T11:17:00.166Z,43.81
2023-04-03T11:19:45.107Z,39.94
2023-04-03T11:22:29.897Z,40.03
2023-04-03T11:25:14.813Z,39.27
2023-04-03T11:27:59.644Z,39.97
2023-04-03T11:30:44.559Z,42.23
2023-04-03T11:33:29.394Z,44.88
2023-04-03T11:36:24.842Z,44.75
2023-04-03T11:39:10.276Z,44.34
2023-04-03T11:42:06.770Z,44.91
2023-04-03T11:44:55.682Z,43.10
2023-04-03T11:47:40.693Z,37.42
2023-04-03T11:50:25.450Z,39.36
2023-04-03T11:53:10.434Z,41.96
2023-04-03T11:55:55.428Z,43.02
2023-04-03T11:58:40.293Z,43.10
2023-04-03T12:01:26.223Z,41.49
2023-04-03T12:04:11.354Z,42.07
2023-04-03T12:06:56.218Z,40.04
2023-04-03T12:09:41.134Z,38.74
2023-04-03T12:12:25.939Z,41.77
2023-04-03T12:15:10.815Z,41.65
2023-04-03T12:17:55.626Z,40.96
2023-04-03T12:20:40.574Z,40.01
2023-04-03T12:23:25.401Z,39.72
2023-04-03T12:26:10.322Z,40.48
2023-04-03T12:28:55.157Z,40.50
2023-04-03T12:31:40.155Z,37.67
2023-04-03T12:34:25.053Z,39.77
2023-04-03T12:37:09.946Z,36.50
2023-04-03T12:39:54.906Z,40.51
2023-04-03T12:42:39.599Z,39.15
2023-04-03T12:45:24.811Z,41.54
2023-04-03T12:48:09.528Z,40.06
2023-04-03T12:50:54.373Z,40.64
2023-04-03T12:53:39.262Z,38.54
2023-04-03T12:56:24.116Z,41.15
2023-04-03T12:59:08.880Z,40.38
2023-04-03T13:01:53.859Z,39.13
2023-04-03T13:04:38.576Z,41.51
2023-04-03T13:07:23.327Z,42.21
2023-04-03T13:10:08.392Z,40.83
2023-04-03T13:12:53.211Z,41.30
2023-04-03T13:15:38.290Z,41.67
2023-04-03T13:18:23.020Z,41.51
2023-04-03T13:21:07.887Z,39.08
2023-04-03T13:23:57.545Z,38.35
2023-04-03T13:26:48.718Z,40.04
2023-04-03T13:29:33.438Z,39.54
2023-04-03T13:32:18.506Z,38.44
2023-04-03T13:35:15.591Z,40.51
2023-04-03T13:38:02.839Z,38.64
2023-04-03T13:40:48.001Z,39.48
2023-04-03T13:43:32.775Z,37.81
2023-04-03T13:46:17.678Z,38.71
2023-04-03T13:49:02.607Z,37.65
2023-04-03T13:51:51.710Z,38.00
2023-04-03T13:54:45.022Z,38.24
2023-04-03T13:57:29.926Z,35.85
2023-04-03T14:00:14.787Z,36.01
2023-04-03T14:02:59.747Z,34.69
2023-04-03T14:05:44.583Z,37.25
2023-04-03T14:08:40.159Z,36.33
2023-04-03T14:11:27.996Z,36.78
2023-04-03T14:14:13.045Z,36.21
2023-04-03T14:16:57.873Z,36.66
2023-04-03T14:19:42.659Z,35.98
2023-04-03T14:22:27.385Z,36.37
2023-04-03T14:25:12.218Z,34.87
2023-04-03T14:27:57.063Z,37.17
2023-04-03T14:30:41.984Z,35.67
2023-04-03T14:33:26.879Z,34.57
2023-04-03T14:36:11.738Z,39.42
2023-04-03T14:38:56.676Z,39.30
2023-04-03T14:41:41.534Z,38.30
2023-04-03T14:44:26.600Z,37.03
2023-04-03T14:47:17.160Z,37.32
2023-04-03T14:50:08.348Z,36.60
2023-04-03T14:52:53.152Z,35.35
2023-04-03T14:55:38.112Z,32.92
2023-04-03T14:58:22.999Z,34.75
2023-04-03T15:01:08.021Z,34.25
2023-04-03T15:03:53.022Z,32.53
2023-04-03T15:06:37.707Z,37.04
2023-04-03T15:09:22.593Z,35.41
2023-04-03T15:12:07.466Z,31.77
2023-04-03T15:14:57.674Z,31.05
2023-04-03T15:17:46.047Z,30.26
2023-04-03T15:20:30.674Z,41.07
2023-04-03T15:23:15.613Z,35.75
2023-04-03T15:26:00.393Z,37.78
2023-04-03T15:28:45.271Z,33.88
2023-04-03T15:31:30.023Z,30.98
2023-04-03T15:34:14.764Z,35.27
2023-04-03T15:36:59.596Z,42.49
2023-04-03T15:39:44.395Z,40.54
2023-04-03T15:42:29.388Z,42.51
2023-04-03T15:45:14.136Z,44.89
2023-04-03T15:47:59.055Z,46.34
2023-04-03T15:50:43.740Z,46.67
2023-04-03T15:53:28.557Z,45.65
2023-04-03T15:56:13.396Z,46.31
2023-04-03T15:58:58.203Z,45.07
2023-04-03T16:01:43.053Z,44.27
2023-04-03T16:04:27.897Z,42.88
2023-04-03T16:07:12.825Z,42.82
2023-04-03T16:09:57.695Z,41.81
2023-04-03T16:12:42.684Z,41.44
2023-04-03T16:15:27.522Z,41.60
2023-04-03T16:18:12.371Z,41.03
2023-04-03T16:20:57.223Z,42.77
2023-04-03T16:23:42.327Z,42.15
2023-04-03T16:26:27.259Z,42.79
2023-04-03T16:29:12.186Z,42.74
2023-04-03T16:31:57.203Z,43.04
2023-04-03T16:34:42.849Z,43.16
2023-04-03T16:37:28.874Z,44.04
2023-04-03T16:40:15.172Z,43.97
2023-04-03T16:42:59.983Z,43.67
2023-04-03T16:45:44.825Z,44.97
2023-04-03T16:48:29.767Z,45.55
2023-04-03T16:51:14.798Z,44.87
2023-04-03T16:53:59.602Z,44.61
2023-04-03T16:56:44.459Z,45.42
2023-04-03T16:59:29.363Z,44.95
2023-04-03T17:02:14.205Z,44.92
2023-04-03T17:04:58.962Z,46.44
2023-04-03T17:07:43.956Z,45.67
2023-04-03T17:10:28.745Z,45.41
2023-04-03T17:13:13.503Z,45.11
2023-04-03T17:15:58.314Z,45.17
2023-04-03T17:18:43.143Z,45.80
2023-04-03T17:21:28.123Z,45.64
2023-04-03T17:24:13.035Z,45.88
2023-04-03T17:26:57.957Z,46.13
2023-04-03T17:29:42.782Z,46.17
2023-04-03T17:32:27.690Z,46.38
2023-04-03T17:35:12.532Z,46.19
2023-04-03T17:37:57.442Z,46.32
2023-04-03T17:40:43.653Z,46.48
2023-04-03T17:43:29.230Z,46.38
2023-04-03T17:46:14.223Z,46.37
2023-04-03T17:48:58.933Z,46.72
2023-04-03T17:51:43.944Z,47.38
2023-04-03T17:54:28.885Z,48.00
2023-04-03T17:57:13.726Z,48.22
2023-04-03T17:59:58.695Z,47.95
2023-04-03T18:02:43.703Z,48.19
2023-04-03T18:05:28.643Z,48.58
2023-04-03T18:08:13.502Z,48.54
2023-04-03T18:10:58.401Z,48.52
2023-04-03T18:13:43.201Z,49.07
2023-04-03T18:16:28.099Z,49.58
2023-04-03T18:19:22.653Z,49.31
2023-04-03T18:22:08.497Z,49.19
2023-04-03T18:24:53.252Z,49.47
2023-04-03T18:27:38.136Z,49.36
2023-04-03T18:30:22.939Z,49.94
2023-04-03T18:33:07.889Z,50.18
2023-04-03T18:35:52.749Z,50.39
2023-04-03T18:38:37.649Z,50.73
2023-04-03T18:41:22.549Z,50.80
2023-04-03T18:44:07.441Z,50.87
2023-04-03T18:46:52.252Z,50.84
2023-04-03T18:49:36.978Z,50.66
2023-04-03T18:52:21.959Z,51.27
2023-04-03T18:55:06.741Z,51.10
2023-04-03T18:57:51.532Z,50.88
2023-04-03T19:00:36.357Z,51.14
2023-04-03T19:03:21.356Z,51.10
2023-04-03T19:06:06.229Z,50.73
2023-04-03T19:08:51.187Z,50.64
2023-04-03T19:11:36.020Z,51.27
2023-04-03T19:14:20.825Z,51.47
2023-04-03T19:17:05.895Z,50.99
2023-04-03T19:19:50.696Z,51.36
2023-04-03T19:22:35.472Z,51.34
2023-04-03T19:25:20.291Z,51.19
2023-04-03T19:28:05.048Z,52.32
2023-04-03T19:30:50.118Z,51.99
2023-04-03T19:33:35.096Z,51.78
2023-04-03T19:36:20.075Z,51.96
2023-04-03T19:39:04.944Z,52.52
2023-04-03T19:41:49.852Z,52.01
2023-04-03T19:44:34.659Z,52.08
2023-04-03T19:47:19.583Z,52.06
2023-04-03T19:50:04.464Z,51.97
2023-04-03T19:52:49.405Z,52.02
2023-04-03T19:55:34.208Z,51.62
2023-04-03T19:58:19.064Z,51.71
2023-04-03T20:01:04.056Z,51.74
2023-04-03T20:03:48.871Z,51.86
2023-04-03T20:06:33.776Z,51.81
2023-04-03T20:09:18.475Z,52.29
2023-04-03T20:12:03.384Z,52.39
2023-04-03T20:14:48.147Z,52.33
2023-04-03T20:17:33.120Z,52.18
2023-04-03T20:20:18.039Z,51.99
2023-04-03T20:23:02.917Z,51.98
2023-04-03T20:25:57.579Z,52.38
2023-04-03T20:28:46.417Z,52.27
2023-04-03T20:31:31.283Z,52.86
2023-04-03T20:34:16.123Z,52.38
2023-04-03T20:37:01.093Z,52.21
2023-04-03T20:39:46.015Z,52.40
2023-04-03T20:42:30.825Z,52.87
2023-04-03T20:45:15.617Z,52.60
2023-04-03T20:48:00.724Z,52.38
2023-04-03T20:50:45.877Z,51.99
2023-04-03T20:53:30.651Z,52.45
2023-04-03T20:56:15.671Z,52.15
2023-04-03T20:59:00.612Z,52.39
